createdAt,value
2023-05-24T00:00:53.164Z,2.27
2023-05-24T00:03:21.604Z,3.00
2023-05-24T00:05:49.041Z,2.40
2023-05-24T00:08:16.368Z,2.07
2023-05-24T00:10:43.901Z,2.23
2023-05-24T00:13:11.138Z,2.40
2023-05-24T00:15:38.370Z,2.77
2023-05-24T00:18:05.748Z,2.60
2023-05-24T00:20:32.906Z,2.80
2023-05-24T00:23:00.058Z,2.43
2023-05-24T00:25:27.154Z,1.93
2023-05-24T00:27:54.202Z,2.20
2023-05-24T00:30:20.890Z,2.30
2023-05-24T00:32:48.310Z,2.57
2023-05-24T00:35:15.411Z,2.23
2023-05-24T00:37:45.127Z,2.30
2023-05-24T00:40:13.052Z,2.07
2023-05-24T00:42:40.442Z,2.33
2023-05-24T00:45:08.218Z,2.07
2023-05-24T00:47:36.154Z,2.33
2023-05-24T00:50:03.756Z,2.43
2023-05-24T00:52:30.833Z,3.13
2023-05-24T00:54:58.168Z,2.10
2023-05-24T00:57:25.390Z,2.73
2023-05-24T00:59:52.870Z,1.93
2023-05-24T01:02:21.345Z,2.20
2023-05-24T01:04:49.020Z,2.20
2023-05-24T01:07:46.019Z,3.27
2023-05-24T01:10:34.391Z,1.90
2023-05-24T01:13:39.302Z,2.30
2023-05-24T01:16:17.969Z,2.47
2023-05-24T01:18:49.838Z,2.47
2023-05-24T01:21:21.232Z,2.37
2023-05-24T01:24:05.741Z,3.27
2023-05-24T01:27:04.668Z,3.20
2023-05-24T01:29:32.703Z,1.93
2023-05-24T01:31:59.902Z,3.27
2023-05-24T01:34:26.933Z,2.30
2023-05-24T01:36:53.771Z,2.03
2023-05-24T01:39:21.727Z,2.30
2023-05-24T01:42:06.326Z,2.37
2023-05-24T01:44:48.877Z,2.20
2023-05-24T01:47:27.180Z,2.20
2023-05-24T01:50:02.580Z,2.10
2023-05-24T01:52:33.616Z,2.90
2023-05-24T01:55:04.880Z,2.20
2023-05-24T01:57:34.654Z,2.20
2023-05-24T02:00:03.160Z,2.10
2023-05-24T02:02:40.095Z,2.20
2023-05-24T02:05:07.569Z,2.20
2023-05-24T02:07:35.478Z,2.80
2023-05-24T02:10:02.275Z,2.60
2023-05-24T02:12:29.350Z,2.40
2023-05-24T02:14:57.218Z,2.13
2023-05-24T02:17:26.901Z,2.20
2023-05-24T02:19:53.769Z,3.30
2023-05-24T02:22:22.299Z,2.00
2023-05-24T02:24:49.423Z,3.13
2023-05-24T02:27:16.528Z,2.60
2023-05-24T02:29:43.619Z,2.13
2023-05-24T02:32:10.722Z,2.33
2023-05-24T02:34:37.855Z,1.70
2023-05-24T02:37:05.131Z,1.40
2023-05-24T02:39:32.313Z,1.63
2023-05-24T02:41:59.056Z,1.67
2023-05-24T02:44:26.195Z,1.40
2023-05-24T02:46:53.421Z,1.90
2023-05-24T02:49:20.499Z,1.67
2023-05-24T02:51:47.148Z,2.57
2023-05-24T02:54:14.288Z,1.90
2023-05-24T02:56:41.479Z,1.90
2023-05-24T02:59:09.000Z,1.90
2023-05-24T03:01:36.220Z,1.77
2023-05-24T03:04:03.771Z,1.60
2023-05-24T03:06:31.292Z,1.63
2023-05-24T03:08:59.208Z,1.63
2023-05-24T03:11:27.185Z,1.63
2023-05-24T03:13:54.371Z,2.57
2023-05-24T03:16:21.539Z,1.97
2023-05-24T03:18:51.005Z,2.00
2023-05-24T03:21:20.570Z,1.80
2023-05-24T03:23:47.896Z,1.70
2023-05-24T03:26:15.031Z,1.80
2023-05-24T03:28:41.899Z,1.60
2023-05-24T03:31:09.225Z,2.73
2023-05-24T03:33:36.931Z,1.80
2023-05-24T03:36:04.305Z,1.80
2023-05-24T03:38:33.606Z,1.80
2023-05-24T03:41:01.043Z,2.00
2023-05-24T03:43:29.275Z,1.77
2023-05-24T03:45:58.927Z,2.20
2023-05-24T03:48:26.064Z,1.60
2023-05-24T03:50:53.245Z,1.73
2023-05-24T03:53:23.110Z,1.70
2023-05-24T03:55:50.247Z,1.77
2023-05-24T03:58:17.462Z,1.80
2023-05-24T04:00:45.176Z,1.73
2023-05-24T04:03:14.700Z,1.90
2023-05-24T04:05:42.015Z,2.00
2023-05-24T04:08:08.688Z,1.87
2023-05-24T04:10:38.405Z,2.30
2023-05-24T04:13:05.682Z,2.13
2023-05-24T04:15:37.909Z,2.60
2023-05-24T04:18:05.225Z,2.70
2023-05-24T04:20:34.763Z,1.97
2023-05-24T04:23:02.105Z,2.50
2023-05-24T04:25:30.128Z,1.70
2023-05-24T04:27:57.274Z,1.80
2023-05-24T04:30:24.952Z,2.37
2023-05-24T04:32:52.695Z,1.80
2023-05-24T04:35:20.319Z,2.60
2023-05-24T04:37:49.595Z,1.87
2023-05-24T04:40:20.622Z,2.10
2023-05-24T04:42:47.753Z,2.30
2023-05-24T04:45:14.874Z,2.07
2023-05-24T04:47:42.053Z,2.07
2023-05-24T04:50:09.063Z,2.47
2023-05-24T04:52:36.509Z,2.00
2023-05-24T04:55:04.135Z,2.83
2023-05-24T04:57:31.250Z,2.57
2023-05-24T04:59:58.427Z,2.50
2023-05-24T05:02:27.036Z,3.23
2023-05-24T05:04:54.353Z,2.50
2023-05-24T05:07:21.474Z,2.90
2023-05-24T05:09:48.614Z,2.97
2023-05-24T05:12:16.024Z,3.73
2023-05-24T05:14:43.251Z,4.00
2023-05-24T05:17:10.393Z,3.13
2023-05-24T05:19:37.509Z,3.57
2023-05-24T05:22:04.616Z,3.67
2023-05-24T05:24:31.792Z,3.20
2023-05-24T05:26:58.945Z,3.00
2023-05-24T05:29:25.993Z,3.37
2023-05-24T05:31:53.121Z,3.07
2023-05-24T05:34:21.214Z,3.33
2023-05-24T05:36:48.314Z,3.40
2023-05-24T05:39:15.619Z,3.40
2023-05-24T05:41:46.399Z,4.30
2023-05-24T05:44:13.623Z,4.10
2023-05-24T05:46:43.973Z,3.77
2023-05-24T05:49:11.322Z,4.10
2023-05-24T05:51:39.081Z,4.73
2023-05-24T05:54:06.380Z,4.37
2023-05-24T05:56:33.497Z,3.83
2023-05-24T05:59:00.191Z,4.20
2023-05-24T06:01:27.259Z,4.17
2023-05-24T06:03:54.477Z,3.90
2023-05-24T06:06:21.690Z,4.17
2023-05-24T06:08:48.299Z,3.27
2023-05-24T06:11:15.031Z,4.80
2023-05-24T06:13:42.135Z,3.60
2023-05-24T06:16:08.868Z,4.87
2023-05-24T06:18:36.700Z,3.83
2023-05-24T06:21:03.864Z,3.43
2023-05-24T06:23:30.950Z,6.13
2023-05-24T06:25:58.097Z,4.30
2023-05-24T06:28:25.589Z,4.97
2023-05-24T06:30:52.680Z,4.23
2023-05-24T06:33:19.786Z,5.43
2023-05-24T06:35:46.929Z,5.33
2023-05-24T06:38:14.030Z,6.13
2023-05-24T06:40:41.865Z,7.00
2023-05-24T06:43:09.162Z,6.87
2023-05-24T06:45:37.252Z,6.33
2023-05-24T06:48:04.875Z,6.03
2023-05-24T06:50:32.056Z,6.23
2023-05-24T06:52:59.142Z,5.50
2023-05-24T06:55:26.480Z,6.50
2023-05-24T06:57:53.153Z,6.57
2023-05-24T07:00:20.464Z,5.93
2023-05-24T07:02:47.705Z,6.40
2023-05-24T07:05:14.898Z,6.63
2023-05-24T07:07:42.700Z,5.90
2023-05-24T07:10:10.979Z,6.60
2023-05-24T07:12:38.136Z,7.40
2023-05-24T07:15:05.727Z,5.90
2023-05-24T07:17:32.885Z,6.60
2023-05-24T07:20:01.739Z,6.40
2023-05-24T07:22:29.723Z,6.10
2023-05-24T07:24:56.908Z,6.60
2023-05-24T07:27:24.163Z,6.73
2023-05-24T07:29:51.268Z,6.07
2023-05-24T07:32:18.447Z,6.27
2023-05-24T07:34:45.636Z,5.33
2023-05-24T07:37:12.727Z,6.67
2023-05-24T07:39:39.399Z,6.27
2023-05-24T07:42:06.394Z,5.33
2023-05-24T07:44:33.590Z,6.53
2023-05-24T07:47:02.378Z,6.23
2023-05-24T07:49:29.704Z,5.70
2023-05-24T07:51:59.386Z,7.20
2023-05-24T07:54:26.499Z,6.33
2023-05-24T07:56:53.662Z,6.27
2023-05-24T07:59:20.368Z,6.23
2023-05-24T08:01:47.705Z,6.33
2023-05-24T08:04:14.425Z,6.03
2023-05-24T08:06:41.633Z,5.30
2023-05-24T08:09:08.837Z,5.73
2023-05-24T08:11:35.549Z,4.47
2023-05-24T08:14:02.618Z,6.33
2023-05-24T08:16:29.961Z,4.90
2023-05-24T08:18:57.217Z,5.37
2023-05-24T08:21:23.958Z,4.53
2023-05-24T08:23:51.173Z,4.53
2023-05-24T08:26:19.280Z,6.17
2023-05-24T08:28:46.452Z,5.27
2023-05-24T08:31:13.180Z,4.80
2023-05-24T08:33:40.249Z,5.00
2023-05-24T08:36:07.420Z,4.77
2023-05-24T08:38:34.080Z,4.03
2023-05-24T08:41:01.322Z,5.27
2023-05-24T08:43:31.331Z,4.30
2023-05-24T08:45:59.849Z,3.80
2023-05-24T08:48:28.246Z,3.93
2023-05-24T08:50:56.331Z,5.13
2023-05-24T08:53:23.756Z,4.27
2023-05-24T08:55:53.315Z,4.73
2023-05-24T08:58:20.711Z,4.50
2023-05-24T09:00:47.452Z,3.80
2023-05-24T09:03:14.482Z,5.00
2023-05-24T09:05:41.874Z,4.33
2023-05-24T09:08:10.116Z,4.27
2023-05-24T09:10:49.606Z,4.30
2023-05-24T09:13:23.519Z,3.97
2023-05-24T09:15:50.722Z,4.10
2023-05-24T09:18:17.482Z,4.30
2023-05-24T09:20:44.968Z,4.33
2023-05-24T09:23:13.637Z,3.57
2023-05-24T09:25:47.838Z,3.60
2023-05-24T09:28:18.555Z,4.70
2023-05-24T09:30:57.227Z,4.00
2023-05-24T09:33:28.167Z,3.70
2023-05-24T09:36:01.425Z,3.67
2023-05-24T09:38:29.562Z,4.67
2023-05-24T09:41:03.988Z,4.03
2023-05-24T09:43:32.851Z,4.27
2023-05-24T09:46:00.504Z,4.33
2023-05-24T09:48:27.430Z,5.33
2023-05-24T09:51:07.200Z,4.73
2023-05-24T09:53:35.183Z,4.40
2023-05-24T09:56:05.386Z,6.80
2023-05-24T09:58:35.728Z,4.13
2023-05-24T10:01:10.725Z,5.07
2023-05-24T10:03:38.265Z,5.50
2023-05-24T10:06:07.598Z,5.10
2023-05-24T10:08:36.115Z,7.00
2023-05-24T10:11:06.618Z,5.43
2023-05-24T10:13:35.788Z,14.97
2023-05-24T10:16:03.750Z,9.80
2023-05-24T10:18:31.362Z,8.37
2023-05-24T10:20:58.926Z,5.40
2023-05-24T10:23:30.574Z,4.93
2023-05-24T10:26:11.177Z,9.20
2023-05-24T10:28:46.058Z,13.37
2023-05-24T10:31:21.979Z,6.17
2023-05-24T10:33:51.736Z,4.67
2023-05-24T10:36:18.956Z,6.37
2023-05-24T10:38:48.807Z,5.00
2023-05-24T10:41:15.996Z,5.27
2023-05-24T10:43:56.749Z,4.70
2023-05-24T10:46:33.475Z,4.47
2023-05-24T10:49:01.377Z,5.73
2023-05-24T10:51:35.307Z,5.40
2023-05-24T10:54:13.675Z,4.67
2023-05-24T10:56:43.117Z,4.53
2023-05-24T10:59:10.618Z,4.57
2023-05-24T11:01:37.808Z,4.40
2023-05-24T11:04:15.101Z,5.20
2023-05-24T11:06:56.260Z,15.03
2023-05-24T11:09:24.000Z,3.93
2023-05-24T11:11:55.585Z,13.13
2023-05-24T11:14:28.989Z,4.00
2023-05-24T11:16:56.567Z,4.70
2023-05-24T11:19:36.323Z,3.63
2023-05-24T11:22:06.100Z,4.17
2023-05-24T11:24:33.633Z,4.87
2023-05-24T11:27:02.320Z,4.00
2023-05-24T11:29:30.511Z,4.30
2023-05-24T11:32:04.237Z,6.57
2023-05-24T11:34:32.128Z,3.43
2023-05-24T11:37:03.144Z,3.77
2023-05-24T11:39:35.395Z,3.97
2023-05-24T11:42:06.274Z,3.60
2023-05-24T11:44:33.914Z,3.63
2023-05-24T11:47:02.216Z,4.60
2023-05-24T11:49:29.325Z,3.90
2023-05-24T11:51:57.560Z,3.63
2023-05-24T11:54:25.256Z,3.63
2023-05-24T11:56:53.124Z,3.50
2023-05-24T11:59:25.488Z,4.57
2023-05-24T12:02:03.621Z,4.10
2023-05-24T12:04:32.086Z,4.30
2023-05-24T12:06:59.228Z,5.60
2023-05-24T12:09:27.100Z,4.50
2023-05-24T12:11:54.623Z,3.23
2023-05-24T12:14:27.486Z,4.57
2023-05-24T12:16:58.411Z,4.20
2023-05-24T12:19:33.579Z,4.17
2023-05-24T12:22:04.854Z,5.83
2023-05-24T12:24:31.746Z,4.33
2023-05-24T12:27:01.941Z,3.83
2023-05-24T12:29:36.887Z,6.50
2023-05-24T12:32:04.556Z,3.90
2023-05-24T12:34:31.665Z,2.83
2023-05-24T12:36:58.906Z,3.67
2023-05-24T12:39:32.234Z,3.60
2023-05-24T12:42:01.673Z,3.20
2023-05-24T12:44:31.252Z,3.00
2023-05-24T12:46:59.009Z,3.67
2023-05-24T12:49:26.854Z,3.40
2023-05-24T12:51:55.528Z,3.60
2023-05-24T12:54:27.690Z,3.60
2023-05-24T12:56:57.068Z,4.13
2023-05-24T12:59:25.207Z,4.10
2023-05-24T13:01:52.689Z,4.47
2023-05-24T13:04:21.721Z,4.07
2023-05-24T13:06:48.999Z,4.60
2023-05-24T13:09:19.007Z,4.37
2023-05-24T13:11:47.022Z,4.03
2023-05-24T13:14:16.421Z,4.03
2023-05-24T13:16:44.189Z,4.53
2023-05-24T13:19:11.757Z,4.07
2023-05-24T13:21:39.269Z,4.83
2023-05-24T13:24:06.900Z,3.93
2023-05-24T13:26:38.069Z,4.17
2023-05-24T13:31:38.300Z,5.07
2023-05-24T13:34:05.878Z,4.20
2023-05-24T13:36:32.944Z,4.43
2023-05-24T13:39:13.507Z,5.07
2023-05-24T13:41:42.305Z,4.57
2023-05-24T13:44:10.020Z,4.50
2023-05-24T13:46:37.768Z,4.50
2023-05-24T13:49:05.299Z,5.03
2023-05-24T13:51:32.867Z,4.23
2023-05-24T13:54:00.161Z,4.17
2023-05-24T13:56:32.541Z,4.27
2023-05-24T13:59:03.631Z,4.80
2023-05-24T14:01:31.274Z,4.63
2023-05-24T14:03:58.643Z,4.57
2023-05-24T14:06:25.915Z,4.17
2023-05-24T14:08:53.057Z,4.43
2023-05-24T14:11:19.806Z,3.97
2023-05-24T14:16:17.120Z,4.33
2023-05-24T14:18:43.903Z,3.77
2023-05-24T14:21:11.593Z,4.17
2023-05-24T14:23:39.060Z,3.70
2023-05-24T14:26:06.711Z,5.00
2023-05-24T14:28:33.832Z,4.83
2023-05-24T14:31:00.914Z,5.37
2023-05-24T14:33:27.535Z,4.53
2023-05-24T14:35:54.694Z,3.87
2023-05-24T14:38:23.697Z,5.27
2023-05-24T14:40:51.212Z,4.67
2023-05-24T14:43:19.427Z,5.10
2023-05-24T14:45:46.907Z,4.77
2023-05-24T14:48:15.970Z,4.33
2023-05-24T14:50:43.286Z,4.37
2023-05-24T14:53:13.570Z,5.17
2023-05-24T14:55:42.036Z,5.27
2023-05-24T14:58:09.443Z,4.43
2023-05-24T15:00:36.753Z,4.00
2023-05-24T15:03:05.659Z,4.67
2023-05-24T15:05:33.061Z,4.63
2023-05-24T15:07:59.791Z,4.90
2023-05-24T15:10:26.955Z,4.70
2023-05-24T15:12:54.026Z,4.50
2023-05-24T15:15:22.436Z,4.40
2023-05-24T15:17:49.688Z,4.50
2023-05-24T15:20:17.218Z,4.30
2023-05-24T15:22:44.024Z,4.97
2023-05-24T15:25:11.366Z,4.97
2023-05-24T15:27:38.683Z,4.23
2023-05-24T15:30:06.280Z,4.70
2023-05-24T15:32:33.385Z,4.23
2023-05-24T15:35:00.655Z,4.57
2023-05-24T15:37:27.807Z,5.23
2023-05-24T15:39:54.968Z,5.13
2023-05-24T15:42:24.400Z,4.77
2023-05-24T15:44:51.677Z,4.40
2023-05-24T15:47:21.250Z,4.77
2023-05-24T15:49:49.798Z,5.40
2023-05-24T15:52:17.284Z,5.03
2023-05-24T15:54:44.035Z,5.20
2023-05-24T15:57:11.539Z,5.03
2023-05-24T15:59:38.713Z,4.47
2023-05-24T16:02:08.826Z,4.80
2023-05-24T16:04:36.130Z,5.27
2023-05-24T16:07:03.228Z,5.47
2023-05-24T16:09:29.893Z,4.50
2023-05-24T16:11:56.979Z,5.27
2023-05-24T16:14:24.137Z,5.27
2023-05-24T16:16:51.322Z,5.53
2023-05-24T16:19:18.279Z,5.37
2023-05-24T16:21:45.724Z,4.70
2023-05-24T16:24:12.847Z,4.70
2023-05-24T16:26:39.923Z,5.03
2023-05-24T16:29:07.044Z,4.37
2023-05-24T16:31:34.278Z,5.30
2023-05-24T16:34:01.472Z,6.40
2023-05-24T16:36:28.611Z,6.30
2023-05-24T16:38:55.337Z,4.87
2023-05-24T16:41:22.493Z,5.43
2023-05-24T16:43:49.653Z,5.43
2023-05-24T16:46:16.839Z,4.83
2023-05-24T16:48:44.290Z,5.13
2023-05-24T16:51:11.372Z,5.07
2023-05-24T16:53:38.459Z,6.13
2023-05-24T16:56:05.511Z,5.87
2023-05-24T16:58:32.587Z,5.43
2023-05-24T17:00:59.716Z,5.67
2023-05-24T17:03:28.721Z,4.10
2023-05-24T17:05:59.484Z,5.43
2023-05-24T17:08:28.666Z,5.47
2023-05-24T17:10:56.921Z,4.47
2023-05-24T17:13:24.225Z,4.73
2023-05-24T17:15:55.040Z,4.80
2023-05-24T17:18:29.497Z,5.80
2023-05-24T17:21:02.400Z,5.00
2023-05-24T17:23:31.472Z,5.50
2023-05-24T17:25:58.590Z,5.27
2023-05-24T17:28:29.195Z,4.97
2023-05-24T17:30:57.561Z,5.03
2023-05-24T17:33:25.907Z,4.73
2023-05-24T17:35:53.717Z,4.73
2023-05-24T17:38:20.449Z,4.73
2023-05-24T17:40:48.935Z,5.23
2023-05-24T17:43:16.026Z,4.73
2023-05-24T17:45:42.974Z,4.73
2023-05-24T17:48:10.358Z,5.37
2023-05-24T17:50:37.443Z,4.83
2023-05-24T17:53:06.055Z,4.93
2023-05-24T17:55:37.966Z,4.20
2023-05-24T17:58:05.046Z,4.67
2023-05-24T18:00:32.103Z,5.63
2023-05-24T18:02:58.866Z,4.20
2023-05-24T18:05:26.080Z,5.50
2023-05-24T18:07:53.413Z,4.30
2023-05-24T18:10:20.574Z,5.17
2023-05-24T18:12:47.828Z,4.80
2023-05-24T18:15:14.925Z,4.70
2023-05-24T18:17:42.103Z,4.80
2023-05-24T18:20:09.570Z,5.23
2023-05-24T18:22:36.683Z,5.03
2023-05-24T18:25:03.548Z,4.90
2023-05-24T18:27:30.633Z,4.60
2023-05-24T18:29:57.770Z,4.27
2023-05-24T18:32:25.012Z,5.07
2023-05-24T18:34:52.175Z,4.90
2023-05-24T18:37:22.871Z,4.50
2023-05-24T18:39:49.731Z,5.13
2023-05-24T18:42:16.949Z,4.77
2023-05-24T18:44:44.069Z,5.10
2023-05-24T18:47:11.120Z,4.53
2023-05-24T18:49:37.820Z,4.10
2023-05-24T18:52:04.982Z,4.63
2023-05-24T18:54:32.080Z,5.27
2023-05-24T18:57:01.587Z,4.70
2023-05-24T18:59:34.286Z,4.67
2023-05-24T19:02:01.992Z,4.73
2023-05-24T19:04:29.706Z,5.83
2023-05-24T19:06:56.874Z,5.43
2023-05-24T19:09:24.357Z,5.67
2023-05-24T19:11:51.427Z,5.80
2023-05-24T19:14:20.518Z,5.43
2023-05-24T19:16:47.802Z,5.47
2023-05-24T19:19:14.963Z,6.57
2023-05-24T19:21:41.912Z,6.27
2023-05-24T19:24:09.100Z,6.60
2023-05-24T19:26:35.861Z,7.80
2023-05-24T19:29:03.078Z,5.33
2023-05-24T19:31:30.231Z,5.63
2023-05-24T19:34:00.584Z,5.73
2023-05-24T19:36:30.300Z,5.20
2023-05-24T19:38:57.401Z,4.87
2023-05-24T19:41:24.472Z,4.83
2023-05-24T19:43:51.585Z,5.23
2023-05-24T19:46:18.776Z,5.23
2023-05-24T19:48:46.092Z,4.73
2023-05-24T19:51:15.408Z,5.07
2023-05-24T19:53:42.104Z,5.00
2023-05-24T19:56:09.181Z,5.57
2023-05-24T19:58:36.325Z,5.77
2023-05-24T20:01:03.263Z,5.83
2023-05-24T20:03:30.452Z,5.83
2023-05-24T20:05:57.163Z,4.93
2023-05-24T20:08:26.087Z,5.07
2023-05-24T20:10:52.783Z,5.77
2023-05-24T20:13:19.915Z,5.33
2023-05-24T20:15:46.573Z,5.20
2023-05-24T20:18:13.673Z,5.10
2023-05-24T20:20:40.838Z,4.77
2023-05-24T20:23:07.987Z,5.67
2023-05-24T20:25:34.663Z,5.60
2023-05-24T20:28:01.400Z,4.93
2023-05-24T20:30:28.738Z,5.77
2023-05-24T20:32:55.344Z,5.50
2023-05-24T20:35:22.492Z,5.10
2023-05-24T20:37:49.622Z,5.00
2023-05-24T20:40:23.067Z,5.17
2023-05-24T20:42:49.886Z,5.03
2023-05-24T20:45:17.590Z,4.73
2023-05-24T20:47:44.694Z,5.23
2023-05-24T20:50:14.629Z,5.53
2023-05-24T20:52:41.810Z,5.83
2023-05-24T20:55:09.073Z,5.13
2023-05-24T20:57:36.483Z,6.17
2023-05-24T21:00:03.729Z,5.27
2023-05-24T21:02:31.203Z,6.00
2023-05-24T21:04:58.351Z,5.13
2023-05-24T21:07:25.633Z,5.13
2023-05-24T21:09:53.882Z,5.37
2023-05-24T21:12:21.278Z,5.60
2023-05-24T21:14:47.929Z,4.83
2023-05-24T21:17:14.646Z,5.80
2023-05-24T21:19:41.946Z,5.10
2023-05-24T21:22:08.590Z,5.33
2023-05-24T21:24:35.803Z,5.57
2023-05-24T21:27:02.891Z,4.97
2023-05-24T21:29:29.984Z,5.10
2023-05-24T21:31:56.687Z,4.60
2023-05-24T21:34:23.842Z,5.10
2023-05-24T21:36:50.624Z,5.73
2023-05-24T21:39:17.744Z,5.00
2023-05-24T21:41:44.822Z,5.10
2023-05-24T21:44:11.882Z,5.53
2023-05-24T21:46:39.072Z,4.57
2023-05-24T21:49:06.216Z,5.47
2023-05-24T21:51:33.615Z,5.73
2023-05-24T21:54:00.731Z,4.63
2023-05-24T21:56:27.960Z,5.43
2023-05-24T21:58:55.241Z,4.73
2023-05-24T22:01:22.472Z,4.30
2023-05-24T22:03:49.764Z,4.50
2023-05-24T22:06:16.907Z,4.27
2023-05-24T22:08:44.061Z,3.83
2023-05-24T22:11:11.136Z,4.80
2023-05-24T22:13:38.384Z,4.50
2023-05-24T22:16:05.626Z,4.17
2023-05-24T22:18:34.219Z,4.37
2023-05-24T22:21:02.207Z,4.33
2023-05-24T22:23:28.928Z,5.30
2023-05-24T22:25:56.085Z,4.07
2023-05-24T22:28:24.771Z,4.17
2023-05-24T22:30:52.304Z,4.80
2023-05-24T22:33:19.978Z,4.20
2023-05-24T22:35:47.129Z,4.40
2023-05-24T22:38:14.227Z,4.63
2023-05-24T22:40:42.096Z,4.73
2023-05-24T22:43:08.949Z,4.20
2023-05-24T22:45:36.253Z,4.20
2023-05-24T22:48:03.174Z,4.80
2023-05-24T22:50:30.445Z,4.90
2023-05-24T22:52:58.616Z,4.67
2023-05-24T22:55:26.090Z,4.63
2023-05-24T22:57:53.376Z,4.00
2023-05-24T23:00:20.747Z,4.10
2023-05-24T23:02:48.083Z,4.20
2023-05-24T23:05:15.345Z,4.00
2023-05-24T23:07:42.526Z,4.27
2023-05-24T23:10:09.766Z,4.60
2023-05-24T23:12:36.908Z,4.33
2023-05-24T23:15:04.492Z,5.33
2023-05-24T23:17:31.656Z,4.70
2023-05-24T23:19:59.119Z,4.17
2023-05-24T23:22:26.325Z,5.13
2023-05-24T23:24:53.533Z,5.07
2023-05-24T23:27:20.626Z,4.73
2023-05-24T23:29:47.766Z,4.87
2023-05-24T23:32:14.927Z,4.97
2023-05-24T23:34:42.046Z,4.90
2023-05-24T23:37:09.170Z,4.37
2023-05-24T23:39:36.291Z,4.33
2023-05-24T23:42:03.675Z,5.30
2023-05-24T23:44:30.668Z,5.23
2023-05-24T23:46:57.556Z,4.17
2023-05-24T23:49:25.031Z,4.63
2023-05-24T23:51:52.189Z,5.23
2023-05-24T23:54:19.413Z,5.10
2023-05-24T23:56:46.738Z,4.30
2023-05-24T23:59:13.979Z,4.87
